createdAt,value
2018-10-16T00:00:17.112Z,99940.11
2018-10-16T00:02:43.139Z,99935.09
2018-10-16T00:05:09.195Z,99932.03
2018-10-16T00:07:35.211Z,99930.40
2018-10-16T00:10:01.235Z,99930.00
2018-10-16T00:12:27.236Z,99924.08
2018-10-16T00:14:53.276Z,99922.30
2018-10-16T00:17:19.287Z,99922.55
2018-10-16T00:19:45.327Z,99916.89
2018-10-16T00:22:11.357Z,99910.62
2018-10-16T00:24:37.381Z,99908.42
2018-10-16T00:27:03.424Z,99914.63
2018-10-16T00:29:29.416Z,99919.14
2018-10-16T00:31:55.455Z,99911.31
2018-10-16T00:34:21.476Z,99915.70
2018-10-16T00:36:47.523Z,99918.14
2018-10-16T00:39:13.573Z,99909.53
2018-10-16T00:41:39.605Z,99910.03
2018-10-16T00:44:05.593Z,99908.87
2018-10-16T00:46:31.635Z,99909.22
2018-10-16T00:48:57.653Z,99908.09
2018-10-16T00:51:23.654Z,99909.12
2018-10-16T00:53:49.674Z,99906.17
2018-10-16T00:56:15.699Z,99907.77
2018-10-16T00:58:41.685Z,99906.55
2018-10-16T01:01:07.708Z,99907.88
2018-10-16T01:03:33.730Z,99905.07
2018-10-16T01:05:59.793Z,99908.61
2018-10-16T01:08:25.814Z,99907.13
2018-10-16T01:10:51.836Z,99913.14
2018-10-16T01:13:17.868Z,99913.25
2018-10-16T01:15:43.853Z,99913.56
2018-10-16T01:18:09.861Z,99903.28
2018-10-16T01:20:35.860Z,99902.32
2018-10-16T01:23:01.882Z,99901.41
2018-10-16T01:25:27.945Z,99898.02
2018-10-16T01:27:53.961Z,99899.99
2018-10-16T01:30:19.971Z,99896.86
2018-10-16T01:32:46.041Z,99894.00
2018-10-16T01:35:12.050Z,99893.75
2018-10-16T01:37:38.063Z,99897.98
2018-10-16T01:40:04.108Z,99893.14
2018-10-16T01:42:30.155Z,99889.97
2018-10-16T01:44:56.165Z,99884.17
2018-10-16T01:47:22.212Z,99880.98
2018-10-16T01:49:48.220Z,99883.49
2018-10-16T01:52:14.273Z,99881.42
2018-10-16T01:54:40.285Z,99884.17
2018-10-16T01:57:06.293Z,99890.91
2018-10-16T01:59:32.319Z,99890.41
2018-10-16T02:01:58.335Z,99893.04
2018-10-16T02:04:24.355Z,99887.34
2018-10-16T02:06:50.386Z,99887.91
2018-10-16T02:09:16.380Z,99893.66
2018-10-16T02:11:42.373Z,99892.49
2018-10-16T02:14:08.389Z,99893.52
2018-10-16T02:16:34.396Z,99896.72
2018-10-16T02:19:00.456Z,99893.66
2018-10-16T02:21:26.466Z,99883.74
2018-10-16T02:23:52.517Z,99882.95
2018-10-16T02:26:18.532Z,99881.30
2018-10-16T02:28:44.660Z,99890.52
2018-10-16T02:31:10.674Z,99886.98
2018-10-16T02:33:36.729Z,99885.99
2018-10-16T02:36:02.712Z,99891.30
2018-10-16T02:38:28.710Z,99894.19
2018-10-16T02:40:54.735Z,99892.84
2018-10-16T02:43:20.794Z,99897.57
2018-10-16T02:45:46.818Z,99902.20
2018-10-16T02:48:12.813Z,99895.35
2018-10-16T02:50:38.845Z,99897.80
2018-10-16T02:53:04.858Z,99902.19
2018-10-16T02:55:30.882Z,99902.56
2018-10-16T02:57:56.881Z,99906.17
2018-10-16T03:00:22.889Z,99903.66
2018-10-16T03:02:48.928Z,99904.39
2018-10-16T03:05:14.947Z,99913.50
2018-10-16T03:07:40.982Z,99913.14
2018-10-16T03:10:07.006Z,99912.13
2018-10-16T03:12:33.015Z,99908.33
2018-10-16T03:14:59.154Z,99910.63
2018-10-16T03:17:25.224Z,99916.52
2018-10-16T03:19:51.265Z,99912.30
2018-10-16T03:22:17.343Z,99919.38
2018-10-16T03:24:43.477Z,99919.08
2018-10-16T03:27:09.567Z,99920.19
2018-10-16T03:29:35.639Z,99928.80
2018-10-16T03:32:01.700Z,99926.53
2018-10-16T03:34:27.906Z,99922.20
2018-10-16T03:36:53.964Z,99926.34
2018-10-16T03:39:19.994Z,99921.21
2018-10-16T03:41:45.998Z,99921.03
2018-10-16T03:44:12.015Z,99922.00
2018-10-16T03:46:38.083Z,99928.86
2018-10-16T03:49:04.112Z,99932.16
2018-10-16T03:51:30.164Z,99930.45
2018-10-16T03:53:56.161Z,99931.08
2018-10-16T03:56:22.163Z,99924.52
2018-10-16T03:58:48.195Z,99926.47
2018-10-16T04:01:14.241Z,99923.90
2018-10-16T04:03:40.244Z,99929.03
2018-10-16T04:06:06.267Z,99923.47
2018-10-16T04:08:32.268Z,99923.53
2018-10-16T04:10:58.319Z,99916.44
2018-10-16T04:13:24.335Z,99912.58
2018-10-16T04:15:50.378Z,99906.67
2018-10-16T04:18:16.345Z,99911.61
2018-10-16T04:20:42.457Z,99915.95
2018-10-16T04:23:08.461Z,99912.16
2018-10-16T04:25:34.534Z,99920.30
2018-10-16T04:28:00.552Z,99924.16
2018-10-16T04:30:26.606Z,99926.47
2018-10-16T04:32:52.673Z,99921.95
2018-10-16T04:35:18.694Z,99926.80
2018-10-16T04:37:44.682Z,99929.36
2018-10-16T04:40:10.728Z,99930.58
2018-10-16T04:42:36.768Z,99933.03
2018-10-16T04:45:02.770Z,99928.55
2018-10-16T04:47:28.737Z,99936.88
2018-10-16T04:49:54.708Z,99942.98
2018-10-16T04:52:20.695Z,99938.64
2018-10-16T04:54:46.676Z,99934.30
2018-10-16T04:57:12.668Z,99938.64
2018-10-16T04:59:38.672Z,99940.59
2018-10-16T05:02:04.648Z,99947.34
2018-10-16T05:04:30.656Z,99951.48
2018-10-16T05:06:56.661Z,99956.73
2018-10-16T05:09:22.620Z,99955.33
2018-10-16T05:11:48.634Z,99959.73
2018-10-16T05:14:14.674Z,99956.23
2018-10-16T05:16:40.734Z,99955.89
2018-10-16T05:19:06.815Z,99965.72
2018-10-16T05:21:32.843Z,99963.53
2018-10-16T05:23:58.836Z,99967.84
2018-10-16T05:26:24.886Z,99964.98
2018-10-16T05:28:50.978Z,99962.24
2018-10-16T05:31:17.193Z,99962.42
2018-10-16T05:33:43.012Z,99964.98
2018-10-16T05:36:09.186Z,99961.85
2018-10-16T05:38:35.237Z,99964.65
2018-10-16T05:41:01.704Z,99965.09
2018-10-16T05:43:30.300Z,99971.36
2018-10-16T05:45:58.059Z,99968.73
2018-10-16T05:48:24.109Z,99973.85
2018-10-16T05:50:50.168Z,99977.77
2018-10-16T05:53:16.288Z,99978.15
2018-10-16T05:55:42.323Z,99978.33
2018-10-16T05:58:08.385Z,99986.64
2018-10-16T06:00:34.422Z,99991.48
2018-10-16T06:03:00.419Z,99988.53
2018-10-16T06:05:26.452Z,99984.86
2018-10-16T06:07:52.520Z,99979.43
2018-10-16T06:10:18.511Z,99978.56
2018-10-16T06:12:44.645Z,99978.09
2018-10-16T06:15:10.632Z,99979.60
2018-10-16T06:17:36.642Z,99982.58
2018-10-16T06:20:02.635Z,99978.94
2018-10-16T06:22:28.626Z,99983.40
2018-10-16T06:24:54.668Z,99984.80
2018-10-16T06:27:20.696Z,99987.20
2018-10-16T06:29:46.715Z,99991.28
2018-10-16T06:32:12.709Z,99987.25
2018-10-16T06:34:38.732Z,99991.36
2018-10-16T06:37:04.721Z,99995.22
2018-10-16T06:39:30.760Z,100001.64
2018-10-16T06:41:56.758Z,99996.73
2018-10-16T06:44:22.756Z,100000.41
2018-10-16T06:46:49.282Z,99999.73
2018-10-16T06:49:15.252Z,99997.46
2018-10-16T06:51:41.237Z,100004.49
2018-10-16T06:54:07.193Z,100007.00
2018-10-16T06:56:33.161Z,100009.92
2018-10-16T06:58:59.152Z,100005.84
2018-10-16T07:01:25.106Z,100013.75
2018-10-16T07:03:51.075Z,100013.42
2018-10-16T07:06:17.073Z,100019.33
2018-10-16T07:08:43.032Z,100024.14
2018-10-16T07:11:08.984Z,100014.16
2018-10-16T07:13:34.972Z,100012.67
2018-10-16T07:16:00.964Z,100015.38
2018-10-16T07:18:26.927Z,100014.52
2018-10-16T07:20:52.913Z,100018.23
2018-10-16T07:23:18.931Z,100016.10
2018-10-16T07:25:44.893Z,100020.69
2018-10-16T07:28:10.865Z,100025.03
2018-10-16T07:30:36.824Z,100026.45
2018-10-16T07:33:02.804Z,100028.28
2018-10-16T07:35:28.759Z,100022.21
2018-10-16T07:37:54.807Z,100030.34
2018-10-16T07:40:20.715Z,100034.09
2018-10-16T07:42:46.672Z,100031.09
2018-10-16T07:45:12.613Z,100028.34
2018-10-16T07:47:38.562Z,100031.36
2018-10-16T07:50:04.531Z,100030.40
2018-10-16T07:52:30.500Z,100028.72
2018-10-16T07:54:56.474Z,100027.85
2018-10-16T07:57:22.528Z,100030.27
2018-10-16T07:59:48.421Z,100030.20
2018-10-16T08:02:14.401Z,100034.64
2018-10-16T08:04:40.366Z,100033.63
2018-10-16T08:07:06.335Z,100035.20
2018-10-16T08:09:32.317Z,100038.84
2018-10-16T08:11:58.305Z,100034.77
2018-10-16T08:14:24.314Z,100037.59
2018-10-16T08:16:50.269Z,100037.75
2018-10-16T08:19:16.268Z,100038.59
2018-10-16T08:21:42.259Z,100037.56
2018-10-16T08:24:08.256Z,100041.31
2018-10-16T08:26:34.265Z,100034.46
2018-10-16T08:29:00.246Z,100030.97
2018-10-16T08:31:26.218Z,100033.25
2018-10-16T08:33:52.195Z,100032.04
2018-10-16T08:36:18.316Z,100031.05
2018-10-16T08:38:44.207Z,100033.74
2018-10-16T08:41:10.174Z,100021.72
2018-10-16T08:43:36.188Z,100021.52
2018-10-16T08:46:02.163Z,100021.78
2018-10-16T08:48:28.125Z,100025.74
2018-10-16T08:50:54.074Z,100019.99
2018-10-16T08:53:20.668Z,100022.47
2018-10-16T08:55:46.629Z,100022.16
2018-10-16T08:58:12.590Z,100022.19
2018-10-16T09:00:38.551Z,100026.68
2018-10-16T09:03:04.522Z,100034.02
2018-10-16T09:05:30.488Z,100036.68
2018-10-16T09:07:57.689Z,100038.75
2018-10-16T09:10:23.687Z,100030.79
2018-10-16T09:12:49.731Z,100032.33
2018-10-16T09:15:15.723Z,100027.30
2018-10-16T09:17:42.662Z,100033.70
2018-10-16T09:20:08.684Z,100027.35
2018-10-16T09:22:34.665Z,100027.42
2018-10-16T09:25:00.743Z,100031.52
2018-10-16T09:27:26.793Z,100038.88
2018-10-16T09:29:52.834Z,100038.51
2018-10-16T09:32:18.861Z,100033.52
2018-10-16T09:34:45.747Z,100034.16
2018-10-16T09:37:11.786Z,100035.30
2018-10-16T09:39:37.771Z,100035.48
2018-10-16T09:42:03.814Z,100039.95
2018-10-16T09:44:29.843Z,100042.48
2018-10-16T09:46:55.857Z,100041.56
2018-10-16T09:49:21.908Z,100042.01
2018-10-16T09:51:47.895Z,100047.59
2018-10-16T09:54:13.960Z,100045.48
2018-10-16T09:56:39.970Z,100046.55
2018-10-16T09:59:05.989Z,100041.61
2018-10-16T10:01:32.087Z,100038.14
2018-10-16T10:03:58.127Z,100033.52
2018-10-16T10:06:24.221Z,100031.66
2018-10-16T10:08:50.213Z,100029.39
2018-10-16T10:11:16.220Z,100028.77
2018-10-16T10:13:42.276Z,100028.23
2018-10-16T10:16:08.378Z,100018.37
2018-10-16T10:18:34.451Z,100021.47
2018-10-16T10:21:00.473Z,100025.34
2018-10-16T10:23:26.559Z,100021.85
2018-10-16T10:25:52.592Z,100017.91
2018-10-16T10:28:18.718Z,100016.70
2018-10-16T10:30:44.838Z,100013.06
2018-10-16T10:33:11.038Z,100017.31
2018-10-16T10:35:37.236Z,100010.17
2018-10-16T10:38:05.280Z,100009.69
2018-10-16T10:40:32.201Z,100009.77
2018-10-16T10:42:58.321Z,99999.80
2018-10-16T10:45:25.568Z,100005.48
2018-10-16T10:47:51.734Z,100005.20
2018-10-16T10:50:18.008Z,100003.34
2018-10-16T10:52:46.031Z,100001.52
2018-10-16T10:55:12.047Z,100003.14
2018-10-16T10:57:38.073Z,99994.88
2018-10-16T11:00:04.140Z,100000.78
2018-10-16T11:02:31.387Z,100000.78
2018-10-16T11:04:58.025Z,100000.70
2018-10-16T11:07:24.256Z,100002.91
2018-10-16T11:09:50.317Z,99992.66
2018-10-16T11:12:17.002Z,99996.82
2018-10-16T11:14:43.011Z,99991.30
2018-10-16T11:17:09.723Z,99995.86
2018-10-16T11:19:35.768Z,99996.17
2018-10-16T11:22:01.866Z,99998.52
2018-10-16T11:24:27.919Z,99994.04
2018-10-16T11:26:54.031Z,100000.09
2018-10-16T11:29:20.025Z,100000.02
2018-10-16T11:31:46.109Z,99997.97
2018-10-16T11:34:12.296Z,99992.31
2018-10-16T11:36:38.448Z,99994.98
2018-10-16T11:39:04.509Z,99992.64
2018-10-16T11:41:31.857Z,99994.53
2018-10-16T11:43:58.608Z,99986.63
2018-10-16T11:46:24.730Z,99987.80
2018-10-16T11:48:50.759Z,99987.99
2018-10-16T11:51:16.903Z,99983.70
2018-10-16T11:53:42.935Z,99996.28
2018-10-16T11:56:09.124Z,99992.38
2018-10-16T11:58:35.100Z,99986.59
2018-10-16T12:01:01.150Z,99989.61
2018-10-16T12:03:28.207Z,99991.12
2018-10-16T12:05:54.303Z,99990.49
2018-10-16T12:08:20.974Z,99993.44
2018-10-16T12:10:47.079Z,99992.50
2018-10-16T12:13:13.133Z,99989.30
2018-10-16T12:15:39.840Z,99990.90
2018-10-16T12:18:05.934Z,99992.67
2018-10-16T12:20:31.944Z,99992.36
2018-10-16T12:22:58.005Z,99994.55
2018-10-16T12:25:24.009Z,99991.97
2018-10-16T12:27:50.073Z,99984.44
2018-10-16T12:30:16.131Z,99986.09
2018-10-16T12:32:42.140Z,99987.84
2018-10-16T12:35:08.243Z,99982.05
2018-10-16T12:37:34.254Z,99985.11
2018-10-16T12:40:00.320Z,99984.52
2018-10-16T12:42:26.279Z,99981.15
2018-10-16T12:44:52.287Z,99987.02
2018-10-16T12:47:18.293Z,99983.14
2018-10-16T12:49:44.410Z,99984.44
2018-10-16T12:52:10.434Z,99981.15
2018-10-16T12:54:36.455Z,99979.27
2018-10-16T12:57:03.306Z,99976.38
2018-10-16T12:59:29.237Z,99983.48
2018-10-16T13:01:55.357Z,99974.38
2018-10-16T13:04:21.394Z,99984.09
2018-10-16T13:06:47.414Z,99986.63
2018-10-16T13:09:13.509Z,99988.26
2018-10-16T13:11:39.434Z,99986.27
2018-10-16T13:14:05.498Z,99993.41
2018-10-16T13:16:31.473Z,99984.04
2018-10-16T13:18:58.363Z,99989.52
2018-10-16T13:21:28.133Z,99985.16
2018-10-16T13:23:54.365Z,99983.06
2018-10-16T13:26:28.988Z,99987.58
2018-10-16T13:28:55.240Z,99990.25
2018-10-16T13:31:21.373Z,99994.19
2018-10-16T13:33:55.257Z,99991.49
2018-10-16T13:38:58.546Z,99994.61
2018-10-16T13:41:26.002Z,99994.52
2018-10-16T13:43:52.194Z,99992.70
2018-10-16T13:46:19.941Z,99996.32
2018-10-16T13:56:22.874Z,100000.54
2018-10-16T13:58:49.758Z,100003.06
2018-10-16T14:01:16.594Z,100011.02
2018-10-16T14:03:42.777Z,100001.66
2018-10-16T14:06:09.111Z,99999.70
2018-10-16T14:08:36.061Z,100002.56
2018-10-16T14:11:02.349Z,100006.16
2018-10-16T14:13:29.799Z,100002.02
2018-10-16T14:15:57.597Z,100010.41
2018-10-16T14:18:23.854Z,100010.41
2018-10-16T14:20:54.250Z,100010.41
2018-10-16T14:23:20.546Z,100014.59
2018-10-16T14:25:46.748Z,100012.37
2018-10-16T14:31:43.429Z,100011.24
2018-10-16T14:34:09.862Z,100012.64
2018-10-16T14:36:35.818Z,100013.06
2018-10-16T14:39:01.822Z,100011.44
2018-10-16T14:44:02.485Z,100011.83
2018-10-16T14:46:30.507Z,100018.69
2018-10-16T14:48:56.536Z,100020.13
2018-10-16T14:51:28.468Z,100017.70
2018-10-16T14:53:54.689Z,100022.03
2018-10-16T14:56:20.745Z,100020.30
2018-10-16T14:58:46.740Z,100024.28
2018-10-16T15:01:15.127Z,100032.75
2018-10-16T15:03:41.428Z,100034.34
2018-10-16T15:06:07.484Z,100036.45
2018-10-16T15:08:33.542Z,100033.87
2018-10-16T15:11:03.453Z,100041.26
2018-10-16T15:13:29.490Z,100042.38
2018-10-16T15:15:56.090Z,100041.97
2018-10-16T15:18:22.117Z,100039.88
2018-10-16T15:20:48.140Z,100043.03
2018-10-16T15:23:14.193Z,100042.62
2018-10-16T15:25:40.197Z,100040.05
2018-10-16T15:28:06.276Z,100044.94
2018-10-16T15:30:32.249Z,100045.38
2018-10-16T15:32:58.268Z,100043.41
2018-10-16T15:35:24.217Z,100046.84
2018-10-16T15:37:52.308Z,100055.13
2018-10-16T15:40:18.256Z,100054.48
2018-10-16T15:42:44.258Z,100057.44
2018-10-16T15:45:10.236Z,100062.32
2018-10-16T15:47:37.920Z,100059.22
2018-10-16T15:50:03.952Z,100067.95
2018-10-16T15:52:30.453Z,100073.69
2018-10-16T15:57:28.726Z,100073.50
2018-10-16T15:59:54.758Z,100074.55
2018-10-16T16:02:20.722Z,100074.15
2018-10-16T16:04:46.753Z,100072.73
2018-10-16T16:07:12.726Z,100088.81
2018-10-16T16:09:43.379Z,100083.83
2018-10-16T16:12:09.478Z,100082.44
2018-10-16T16:14:35.388Z,100087.90
2018-10-16T16:17:01.378Z,100089.51
2018-10-16T16:19:27.460Z,100088.97
2018-10-16T16:21:53.438Z,100091.28
2018-10-16T16:24:19.377Z,100096.00
2018-10-16T16:26:45.349Z,100098.17
2018-10-16T16:29:11.356Z,100097.54
2018-10-16T16:31:37.412Z,100101.08
2018-10-16T16:34:03.372Z,100103.06
2018-10-16T16:36:29.347Z,100106.23
2018-10-16T16:38:55.351Z,100108.66
2018-10-16T16:41:21.355Z,100108.81
2018-10-16T16:43:47.430Z,100105.72
2018-10-16T16:46:13.492Z,100108.46
2018-10-16T16:48:40.121Z,100119.09
2018-10-16T16:53:37.651Z,100115.22
2018-10-16T16:56:08.820Z,100114.34
2018-10-16T17:01:09.391Z,100119.63
2018-10-16T17:03:39.308Z,100125.29
2018-10-16T17:06:05.512Z,100123.61
2018-10-16T17:08:32.199Z,100122.88
2018-10-16T17:11:00.768Z,100125.70
2018-10-16T17:13:27.713Z,100125.19
2018-10-16T17:15:53.829Z,100123.31
2018-10-16T17:18:19.887Z,100134.15
2018-10-16T17:20:46.195Z,100131.60
2018-10-16T17:23:14.921Z,100132.86
2018-10-16T17:25:41.666Z,100129.16
2018-10-16T17:28:07.546Z,100125.89
2018-10-16T17:30:33.605Z,100127.23
2018-10-16T17:32:59.756Z,100127.54
2018-10-16T17:35:25.941Z,100136.17
2018-10-16T17:37:57.897Z,100134.83
2018-10-16T17:40:24.135Z,100138.69
2018-10-16T17:45:24.188Z,100142.30
2018-10-16T17:47:50.397Z,100141.67
2018-10-16T17:50:16.947Z,100146.12
2018-10-16T17:52:43.388Z,100141.97
2018-10-16T17:55:10.271Z,100151.92
2018-10-16T17:57:36.623Z,100149.52
2018-10-16T18:00:02.755Z,100148.05
2018-10-16T18:02:29.312Z,100150.40
2018-10-16T18:04:55.565Z,100151.52
2018-10-16T18:12:25.964Z,100144.20
2018-10-16T18:14:52.076Z,100146.61
2018-10-16T18:17:18.255Z,100146.28
2018-10-16T18:19:44.336Z,100144.31
2018-10-16T18:22:10.519Z,100144.09
2018-10-16T18:24:36.538Z,100143.47
2018-10-16T18:27:02.579Z,100152.23
2018-10-16T18:29:28.612Z,100151.98
2018-10-16T18:31:54.629Z,100154.85
2018-10-16T18:34:20.653Z,100158.63
2018-10-16T18:36:46.959Z,100157.92
2018-10-16T18:39:13.938Z,100157.55
2018-10-16T18:41:40.021Z,100159.61
2018-10-16T18:44:06.077Z,100159.75
2018-10-16T18:46:32.208Z,100160.66
2018-10-16T18:48:58.378Z,100166.03
2018-10-16T18:51:25.324Z,100170.33
2018-10-16T18:53:51.552Z,100164.02
2018-10-16T18:56:17.657Z,100171.39
2018-10-16T18:58:43.795Z,100172.29
2018-10-16T19:01:10.147Z,100172.34
2018-10-16T19:03:37.866Z,100173.11
2018-10-16T19:06:04.006Z,100174.52
2018-10-16T19:11:03.196Z,100176.59
2018-10-16T19:13:32.186Z,100174.23
2018-10-16T19:15:58.245Z,100181.52
2018-10-16T19:18:24.380Z,100175.86
2018-10-16T19:20:51.397Z,100175.27
2018-10-16T19:23:19.016Z,100174.89
2018-10-16T19:25:45.102Z,100179.16
2018-10-16T19:28:14.955Z,100177.77
2018-10-16T19:30:41.139Z,100172.25
2018-10-16T19:33:07.875Z,100174.77
2018-10-16T19:40:38.412Z,100177.63
2018-10-16T19:43:04.444Z,100183.02
2018-10-16T19:45:30.568Z,100179.80
2018-10-16T19:47:57.372Z,100181.88
2018-10-16T19:50:25.158Z,100182.56
2018-10-16T19:52:51.251Z,100186.17
2018-10-16T19:55:17.343Z,100187.86
2018-10-16T19:57:43.461Z,100191.47
2018-10-16T20:02:40.324Z,100191.42
2018-10-16T20:08:37.282Z,100186.73
2018-10-16T20:11:04.584Z,100190.19
2018-10-16T20:13:30.757Z,100184.02
2018-10-16T20:15:57.592Z,100184.08
2018-10-16T20:18:23.732Z,100184.48
2018-10-16T20:20:49.974Z,100189.91
2018-10-16T20:23:16.144Z,100185.92
2018-10-16T20:25:42.268Z,100186.30
2018-10-16T20:28:13.958Z,100184.13
2018-10-16T20:33:17.112Z,100181.70
2018-10-16T20:41:38.840Z,100182.19
2018-10-16T20:44:05.308Z,100178.34
2018-10-16T20:46:34.112Z,100184.13
2018-10-16T20:49:02.262Z,100176.97
2018-10-16T20:51:29.749Z,100179.31
2018-10-16T20:56:27.996Z,100180.79
2018-10-16T20:58:54.236Z,100176.61
2018-10-16T21:01:21.673Z,100179.20
2018-10-16T21:03:49.020Z,100178.09
2018-10-16T21:06:18.494Z,100179.81
2018-10-16T21:09:03.420Z,100176.43
2018-10-16T21:11:29.613Z,100170.76
2018-10-16T21:13:56.001Z,100171.02
2018-10-16T21:16:22.739Z,100171.23
2018-10-16T21:18:48.829Z,100171.36
2018-10-16T21:21:14.940Z,100174.69
2018-10-16T21:23:41.138Z,100171.11
2018-10-16T21:26:08.272Z,100166.66
2018-10-16T21:28:34.437Z,100162.87
2018-10-16T21:31:01.847Z,100163.72
2018-10-16T21:33:27.957Z,100164.36
2018-10-16T21:35:54.061Z,100163.55
2018-10-16T21:38:20.656Z,100160.19
2018-10-16T21:40:46.797Z,100160.48
2018-10-16T21:43:12.911Z,100167.09
2018-10-16T21:45:39.180Z,100167.86
2018-10-16T21:48:05.214Z,100164.88
2018-10-16T21:50:31.335Z,100161.97
2018-10-16T21:52:57.764Z,100159.48
2018-10-16T21:55:23.768Z,100160.13
2018-10-16T22:02:57.201Z,100161.25
2018-10-16T22:05:24.092Z,100160.94
2018-10-16T22:07:51.045Z,100155.61
2018-10-16T22:10:18.246Z,100153.78
2018-10-16T22:12:44.363Z,100158.30
2018-10-16T22:15:11.052Z,100158.75
2018-10-16T22:17:37.236Z,100154.47
2018-10-16T22:20:04.290Z,100154.94
2018-10-16T22:22:31.134Z,100156.79
2018-10-16T22:24:57.346Z,100158.95
2018-10-16T22:27:23.431Z,100162.69
2018-10-16T22:29:49.513Z,100161.25
2018-10-16T22:32:15.593Z,100154.54
2018-10-16T22:34:41.664Z,100157.34
2018-10-16T22:37:07.745Z,100157.02
2018-10-16T22:39:33.770Z,100162.87
2018-10-16T22:41:59.837Z,100154.01
2018-10-16T22:44:25.933Z,100162.72
2018-10-16T22:46:52.035Z,100148.20
2018-10-16T22:49:18.097Z,100154.70
2018-10-16T22:51:44.176Z,100151.00
2018-10-16T22:54:10.282Z,100150.47
2018-10-16T22:56:36.284Z,100154.91
2018-10-16T22:59:02.420Z,100154.44
2018-10-16T23:01:28.467Z,100157.60
2018-10-16T23:03:54.539Z,100155.37
2018-10-16T23:06:20.568Z,100165.52
2018-10-16T23:08:46.697Z,100155.41
2018-10-16T23:11:12.766Z,100151.28
2018-10-16T23:13:38.854Z,100159.88
2018-10-16T23:16:05.708Z,100157.92
2018-10-16T23:18:31.724Z,100156.96
2018-10-16T23:20:57.792Z,100156.11
2018-10-16T23:23:23.842Z,100155.53
2018-10-16T23:25:49.835Z,100157.50
2018-10-16T23:28:15.852Z,100167.28
2018-10-16T23:30:42.049Z,100162.24
2018-10-16T23:33:09.353Z,100161.75
2018-10-16T23:35:35.360Z,100158.58
2018-10-16T23:38:02.367Z,100152.95
2018-10-16T23:40:28.425Z,100159.17
2018-10-16T23:42:55.449Z,100153.34
2018-10-16T23:45:21.437Z,100155.77
2018-10-16T23:47:47.424Z,100155.31
2018-10-16T23:50:13.484Z,100157.73
2018-10-16T23:52:40.776Z,100164.45
2018-10-16T23:55:06.945Z,100161.05
2018-10-16T23:57:34.097Z,100162.91
